createdAt,value
2022-12-23T00:03:56.911Z,11.4
2022-12-23T00:08:56.835Z,11.5
2022-12-23T00:13:56.816Z,11.5
2022-12-23T00:18:56.794Z,11.6
2022-12-23T00:23:56.768Z,11.6
2022-12-23T00:28:56.755Z,11.7
2022-12-23T00:33:56.738Z,11.8
2022-12-23T00:38:56.717Z,11.8
2022-12-23T00:43:56.698Z,11.8
2022-12-23T00:48:56.679Z,11.9
2022-12-23T00:53:56.659Z,11.9
2022-12-23T00:58:56.634Z,11.9
2022-12-23T01:03:56.619Z,11.9
2022-12-23T01:08:56.593Z,12
2022-12-23T01:13:56.560Z,12.1
2022-12-23T01:18:56.556Z,12.1
2022-12-23T01:23:56.529Z,12.1
2022-12-23T01:28:56.510Z,12.1
2022-12-23T01:33:56.499Z,12.1
2022-12-23T01:38:56.491Z,12.1
2022-12-23T01:43:56.459Z,12.1
2022-12-23T01:48:56.511Z,12.1
2022-12-23T01:53:56.406Z,12.1
2022-12-23T01:58:56.390Z,12.1
2022-12-23T02:03:56.367Z,12.1
2022-12-23T02:08:56.353Z,12.1
2022-12-23T02:13:56.323Z,12.1
2022-12-23T02:18:56.314Z,12.2
2022-12-23T02:23:56.290Z,12.2
2022-12-23T02:28:56.271Z,12.2
2022-12-23T02:33:56.248Z,12.1
2022-12-23T02:38:56.223Z,12.2
2022-12-23T02:43:56.206Z,12.2
2022-12-23T02:48:56.187Z,12.2
2022-12-23T02:53:56.193Z,12.2
2022-12-23T02:58:56.148Z,12.2
2022-12-23T03:03:56.129Z,12.2
2022-12-23T03:08:56.109Z,12.2
2022-12-23T03:13:56.098Z,12.2
2022-12-23T03:18:56.179Z,12.2
2022-12-23T03:23:56.055Z,12.2
2022-12-23T03:28:56.029Z,12.2
2022-12-23T03:33:56.014Z,12.2
2022-12-23T03:38:55.987Z,12.2
2022-12-23T03:43:55.973Z,12.2
2022-12-23T03:48:55.945Z,12.2
2022-12-23T03:53:55.929Z,12.2
2022-12-23T03:58:55.922Z,12.2
2022-12-23T04:03:55.884Z,12.2
2022-12-23T04:08:55.870Z,12.2
2022-12-23T04:13:55.878Z,12.3
2022-12-23T04:18:55.828Z,12.3
2022-12-23T04:23:55.807Z,12.2
2022-12-23T04:28:55.783Z,12.2
2022-12-23T04:33:55.769Z,12
2022-12-23T04:38:55.744Z,11.8
2022-12-23T04:43:55.783Z,11.8
2022-12-23T04:48:55.702Z,11.8
2022-12-23T04:53:55.700Z,11.7
2022-12-23T04:58:55.668Z,11.7
2022-12-23T05:03:55.644Z,11.8
2022-12-23T05:08:55.645Z,11.7
2022-12-23T05:13:55.601Z,11.7
2022-12-23T05:18:55.584Z,11.6
2022-12-23T05:23:55.566Z,11.6
2022-12-23T05:28:55.555Z,11.6
2022-12-23T05:33:55.528Z,11.6
2022-12-23T05:38:55.507Z,11.6
2022-12-23T05:43:55.486Z,11.7
2022-12-23T05:53:55.450Z,11.7
2022-12-23T05:58:55.456Z,11.7
2022-12-23T06:03:55.405Z,11.8
2022-12-23T06:08:55.386Z,11.8
2022-12-23T06:13:55.374Z,11.8
2022-12-23T06:18:55.349Z,11.8
2022-12-23T06:23:55.323Z,11.8
2022-12-23T06:28:55.349Z,11.8
2022-12-23T06:33:55.423Z,11.8
2022-12-23T06:38:55.291Z,11.8
2022-12-23T06:43:55.286Z,11.8
2022-12-23T06:48:55.285Z,11.8
2022-12-23T06:53:55.212Z,11.8
2022-12-23T06:58:55.187Z,11.8
2022-12-23T07:03:55.162Z,11.8
2022-12-23T07:08:55.155Z,11.8
2022-12-23T07:13:55.236Z,11.8
2022-12-23T07:18:55.142Z,11.8
2022-12-23T07:23:55.213Z,11.9
2022-12-23T07:28:55.109Z,11.8
2022-12-23T07:33:55.052Z,11.8
2022-12-23T07:38:55.039Z,11.8
2022-12-23T07:43:55.038Z,11.8
2022-12-23T07:48:55.017Z,11.8
2022-12-23T07:53:54.959Z,11.8
2022-12-23T07:58:54.941Z,11.8
2022-12-23T08:03:54.929Z,11.9
2022-12-23T08:08:54.902Z,12.1
2022-12-23T08:13:54.925Z,12.1
2022-12-23T08:18:54.857Z,12.1
2022-12-23T08:23:54.855Z,12.1
2022-12-23T08:28:54.944Z,12.1
2022-12-23T08:33:54.857Z,12.1
2022-12-23T08:38:54.813Z,12.1
2022-12-23T08:43:54.801Z,12.1
2022-12-23T08:48:54.856Z,12.1
2022-12-23T08:53:54.717Z,12.2
2022-12-23T08:58:54.706Z,12.2
2022-12-23T09:03:54.697Z,12.2
2022-12-23T09:08:54.672Z,12.3
2022-12-23T09:13:54.636Z,12.3
2022-12-23T09:18:54.623Z,12.3
2022-12-23T09:23:54.605Z,12.3
2022-12-23T09:33:54.548Z,12.2
2022-12-23T09:38:54.550Z,12.2
2022-12-23T09:43:54.529Z,12.3
2022-12-23T09:48:54.496Z,12.2
2022-12-23T09:53:54.481Z,12.2
2022-12-23T09:58:54.462Z,12.2
2022-12-23T10:03:54.432Z,12.2
2022-12-23T10:08:54.420Z,12.3
2022-12-23T10:13:54.405Z,12.3
2022-12-23T10:18:54.379Z,12.3
2022-12-23T10:23:54.354Z,12.3
2022-12-23T10:28:54.337Z,12.3
2022-12-23T10:33:54.314Z,12.4
2022-12-23T10:38:54.473Z,12.4
2022-12-23T10:43:54.447Z,12.4
2022-12-23T10:48:54.330Z,12.4
2022-12-23T10:53:54.431Z,12.5
2022-12-23T10:58:54.409Z,12.6
2022-12-23T11:03:54.309Z,12.6
2022-12-23T11:08:54.358Z,12.7
2022-12-23T11:13:54.155Z,12.7
2022-12-23T11:18:54.421Z,12.7
2022-12-23T11:23:54.266Z,12.7
2022-12-23T11:28:54.259Z,12.7
2022-12-23T11:33:54.249Z,12.7
2022-12-23T11:38:54.238Z,12.7
2022-12-23T11:43:54.185Z,12.8
2022-12-23T11:48:54.112Z,12.8
2022-12-23T11:53:54.004Z,12.8
2022-12-23T11:58:54.160Z,12.8
2022-12-23T12:03:54.114Z,12.8
2022-12-23T12:08:54.114Z,12.8
2022-12-23T12:13:54.142Z,12.9
2022-12-23T12:18:54.001Z,12.9
2022-12-23T12:23:54.025Z,12.9
2022-12-23T12:28:53.983Z,13
2022-12-23T12:33:53.978Z,13
2022-12-23T12:38:53.972Z,13
2022-12-23T12:43:53.981Z,13
2022-12-23T12:48:53.936Z,13.1
2022-12-23T12:53:53.903Z,13.1
2022-12-23T12:58:53.885Z,13.1
2022-12-23T13:03:53.916Z,13.2
2022-12-23T13:08:53.891Z,13.2
2022-12-23T13:13:53.819Z,13.3
2022-12-23T13:18:53.834Z,13.3
2022-12-23T13:23:53.736Z,13.3
2022-12-23T13:28:53.788Z,13.3
2022-12-23T13:33:53.777Z,13.3
2022-12-23T13:38:53.715Z,13.4
2022-12-23T13:43:53.751Z,13.4
2022-12-23T13:48:53.798Z,13.4
2022-12-23T13:53:53.653Z,13.5
2022-12-23T13:58:53.651Z,13.4
2022-12-23T14:03:53.560Z,13.5
2022-12-23T14:08:53.619Z,13.5
2022-12-23T14:13:53.615Z,13.5
2022-12-23T14:18:53.588Z,13.5
2022-12-23T14:23:53.558Z,13.5
2022-12-23T14:28:53.505Z,13.4
2022-12-23T14:33:53.516Z,13.4
2022-12-23T14:38:53.542Z,13.4
2022-12-23T14:43:53.493Z,13.4
2022-12-23T14:48:53.282Z,13.3
2022-12-23T14:53:53.452Z,13.4
2022-12-23T14:58:53.452Z,13.4
2022-12-23T15:03:53.280Z,13.4
2022-12-23T15:08:53.378Z,13.3
2022-12-23T15:13:53.174Z,13.4
2022-12-23T15:18:53.377Z,13.3
2022-12-23T15:23:53.361Z,13.4
2022-12-23T15:28:53.312Z,13.3
2022-12-23T15:33:53.264Z,13.3
2022-12-23T15:38:53.245Z,13.3
2022-12-23T15:43:53.247Z,13.3
2022-12-23T15:48:53.163Z,13.3
2022-12-23T15:53:53.165Z,13.3
2022-12-23T15:58:53.038Z,13.3
2022-12-23T16:03:53.220Z,13.3
2022-12-23T16:08:53.138Z,13.3
2022-12-23T16:13:53.097Z,13.4
2022-12-23T16:18:53.046Z,13.3
2022-12-23T16:23:53.078Z,13.3
2022-12-23T16:28:53.044Z,13.4
2022-12-23T16:33:52.997Z,13.3
2022-12-23T16:38:53.092Z,13.3
2022-12-23T16:43:52.936Z,13.3
2022-12-23T16:48:53.035Z,13.3
2022-12-23T16:53:52.958Z,13.3
2022-12-23T16:58:52.922Z,13.4
2022-12-23T17:03:52.950Z,13.3
2022-12-23T17:08:52.884Z,13.3
2022-12-23T17:13:52.887Z,13.3
2022-12-23T17:18:52.819Z,13.3
2022-12-23T17:23:52.789Z,13.3
2022-12-23T17:28:52.775Z,13.3
2022-12-23T17:33:52.806Z,13.3
2022-12-23T17:38:52.800Z,13.3
2022-12-23T17:43:52.711Z,13.2
2022-12-23T17:48:52.726Z,13.1
2022-12-23T17:53:52.699Z,13
2022-12-23T17:58:52.623Z,12.9
2022-12-23T18:03:52.656Z,12.9
2022-12-23T18:08:52.488Z,12.9
2022-12-23T18:13:52.470Z,12.9
2022-12-23T18:18:52.529Z,12.9
2022-12-23T18:23:52.416Z,12.8
2022-12-23T18:28:52.467Z,12.8
2022-12-23T18:33:52.410Z,12.8
2022-12-23T18:38:52.338Z,12.8
2022-12-23T18:43:52.327Z,12.9
2022-12-23T18:48:52.338Z,12.9
2022-12-23T18:53:52.297Z,12.9
2022-12-23T18:58:52.318Z,12.8
2022-12-23T19:03:52.265Z,12.8
2022-12-23T19:08:52.212Z,12.8
2022-12-23T19:13:52.223Z,12.9
2022-12-23T19:18:52.255Z,12.9
2022-12-23T19:23:52.166Z,13
2022-12-23T19:28:52.169Z,12.9
2022-12-23T19:33:52.170Z,12.9
2022-12-23T19:38:52.119Z,12.9
2022-12-23T19:43:52.260Z,12.9
2022-12-23T19:48:52.205Z,12.9
2022-12-23T19:53:52.112Z,12.8
2022-12-23T19:58:52.181Z,12.7
2022-12-23T20:03:52.138Z,12.6
2022-12-23T20:08:52.097Z,12.5
2022-12-23T20:13:52.086Z,12.5
2022-12-23T20:18:52.044Z,12.4
2022-12-23T20:23:51.941Z,12.4
2022-12-23T20:28:51.915Z,12.3
2022-12-23T20:33:51.958Z,12.2
2022-12-23T20:38:51.867Z,12.2
2022-12-23T20:43:51.841Z,12.1
2022-12-23T20:48:51.828Z,12.1
2022-12-23T20:53:51.794Z,12
2022-12-23T20:58:51.776Z,11.9
2022-12-23T21:03:51.773Z,11.7
2022-12-23T21:08:51.898Z,11.6
2022-12-23T21:13:51.751Z,11.5
2022-12-23T21:18:51.693Z,11.5
2022-12-23T21:23:51.669Z,11.4
2022-12-23T21:28:51.728Z,11.3
2022-12-23T21:33:51.636Z,11.4
2022-12-23T21:38:51.616Z,11.4
2022-12-23T21:43:51.592Z,11.5
2022-12-23T21:48:51.574Z,11.5
2022-12-23T21:53:51.553Z,11.5
2022-12-23T21:58:51.525Z,11.6
2022-12-23T22:03:51.518Z,11.7
2022-12-23T22:08:51.674Z,11.6
2022-12-23T22:13:51.474Z,11.7
2022-12-23T22:18:51.470Z,11.7
2022-12-23T22:23:51.451Z,11.8
2022-12-23T22:28:51.426Z,11.8
2022-12-23T22:33:51.544Z,11.8
2022-12-23T22:38:51.376Z,11.8
2022-12-23T22:43:51.453Z,11.8
2022-12-23T22:48:51.335Z,11.7
2022-12-23T22:53:51.334Z,11.7
2022-12-23T22:58:51.428Z,11.8
2022-12-23T23:03:51.271Z,11.8
2022-12-23T23:08:51.256Z,11.8
2022-12-23T23:13:51.230Z,11.8
2022-12-23T23:18:51.245Z,11.8
2022-12-23T23:23:51.183Z,11.7
2022-12-23T23:28:51.205Z,11.7
2022-12-23T23:33:51.151Z,11.7
2022-12-23T23:38:51.130Z,11.7
2022-12-23T23:43:51.114Z,11.7
2022-12-23T23:48:51.091Z,11.7
2022-12-23T23:53:51.089Z,11.7
2022-12-23T23:58:51.049Z,11.7
